sensor_id;sensor_type;location;lat;lon;timestamp;pressure;altitude;pressure_sealevel;temperature;humidity
44359;BME280;30077;52.474;13.326;2022-07-05T00:04:58;101197.50;;;17.82;62.56
44359;BME280;30077;52.474;13.326;2022-07-05T00:09:58;101196.16;;;17.75;63.09
44359;BME280;30077;52.474;13.326;2022-07-05T00:14:59;101194.94;;;17.66;63.62
44359;BME280;30077;52.474;13.326;2022-07-05T00:20:00;101198.69;;;17.64;63.86
44359;BME280;30077;52.474;13.326;2022-07-05T00:25:00;101197.09;;;17.61;63.82
44359;BME280;30077;52.474;13.326;2022-07-05T00:30:01;101201.91;;;17.56;63.45
44359;BME280;30077;52.474;13.326;2022-07-05T00:35:01;101202.09;;;17.53;63.52
44359;BME280;30077;52.474;13.326;2022-07-05T00:40:03;101205.97;;;17.49;63.69
44359;BME280;30077;52.474;13.326;2022-07-05T00:45:05;101210.69;;;17.45;64.55
44359;BME280;30077;52.474;13.326;2022-07-05T00:50:06;101215.63;;;17.39;66.03
44359;BME280;30077;52.474;13.326;2022-07-05T00:55:07;101207.84;;;17.34;67.14
44359;BME280;30077;52.474;13.326;2022-07-05T01:00:08;101217.28;;;17.27;68.47
44359;BME280;30077;52.474;13.326;2022-07-05T01:05:08;101230.88;;;17.25;68.60
44359;BME280;30077;52.474;13.326;2022-07-05T01:10:09;101230.06;;;17.38;67.65
44359;BME280;30077;52.474;13.326;2022-07-05T01:15:10;101238.72;;;17.43;67.96
44359;BME280;30077;52.474;13.326;2022-07-05T01:20:10;101229.03;;;17.40;69.43
44359;BME280;30077;52.474;13.326;2022-07-05T01:25:11;101219.28;;;17.38;69.46
44359;BME280;30077;52.474;13.326;2022-07-05T01:30:12;101222.78;;;17.25;70.06
44359;BME280;30077;52.474;13.326;2022-07-05T01:35:14;101222.59;;;17.14;70.02
44359;BME280;30077;52.474;13.326;2022-07-05T01:40:15;101225.56;;;17.09;69.66
44359;BME280;30077;52.474;13.326;2022-07-05T01:45:16;101219.91;;;17.00;70.21
44359;BME280;30077;52.474;13.326;2022-07-05T01:50:39;101216.44;;;16.98;69.35
44359;BME280;30077;52.474;13.326;2022-07-05T01:55:41;101225.09;;;17.03;68.81
44359;BME280;30077;52.474;13.326;2022-07-05T02:00:46;101224.34;;;17.15;67.08
44359;BME280;30077;52.474;13.326;2022-07-05T02:05:47;101227.31;;;17.11;67.70
44359;BME280;30077;52.474;13.326;2022-07-05T02:10:48;101221.63;;;17.15;66.97
44359;BME280;30077;52.474;13.326;2022-07-05T02:15:48;101216.25;;;17.15;66.91
44359;BME280;30077;52.474;13.326;2022-07-05T02:20:49;101220.00;;;17.13;67.31
44359;BME280;30077;52.474;13.326;2022-07-05T02:25:49;101229.25;;;17.08;67.49
44359;BME280;30077;52.474;13.326;2022-07-05T02:30:49;101219.31;;;17.09;67.96
44359;BME280;30077;52.474;13.326;2022-07-05T02:35:49;101231.25;;;17.05;68.20
44359;BME280;30077;52.474;13.326;2022-07-05T02:40:50;101227.41;;;17.09;68.45
44359;BME280;30077;52.474;13.326;2022-07-05T02:45:50;101234.81;;;17.05;68.89
44359;BME280;30077;52.474;13.326;2022-07-05T02:50:50;101224.81;;;16.93;69.47
44359;BME280;30077;52.474;13.326;2022-07-05T02:55:51;101229.34;;;16.93;69.56
44359;BME280;30077;52.474;13.326;2022-07-05T03:00:51;101231.25;;;16.91;70.22
44359;BME280;30077;52.474;13.326;2022-07-05T03:05:51;101241.28;;;16.89;70.95
44359;BME280;30077;52.474;13.326;2022-07-05T03:10:51;101245.91;;;16.87;71.54
44359;BME280;30077;52.474;13.326;2022-07-05T03:15:52;101253.19;;;16.84;72.24
44359;BME280;30077;52.474;13.326;2022-07-05T03:20:52;101256.56;;;16.88;72.70
44359;BME280;30077;52.474;13.326;2022-07-05T03:25:52;101253.78;;;16.90;72.89
44359;BME280;30077;52.474;13.326;2022-07-05T03:30:53;101256.13;;;16.96;73.26
44359;BME280;30077;52.474;13.326;2022-07-05T03:35:53;101256.78;;;16.99;72.92
44359;BME280;30077;52.474;13.326;2022-07-05T03:40:53;101267.84;;;17.09;72.56
44359;BME280;30077;52.474;13.326;2022-07-05T03:45:53;101263.50;;;17.21;71.61
44359;BME280;30077;52.474;13.326;2022-07-05T03:50:54;101275.94;;;17.23;71.57
44359;BME280;30077;52.474;13.326;2022-07-05T03:55:54;101279.78;;;17.33;71.50
44359;BME280;30077;52.474;13.326;2022-07-05T04:00:55;101274.19;;;17.37;71.41
44359;BME280;30077;52.474;13.326;2022-07-05T04:05:55;101286.16;;;17.47;71.37
44359;BME280;30077;52.474;13.326;2022-07-05T04:10:55;101289.75;;;17.60;70.84
44359;BME280;30077;52.474;13.326;2022-07-05T04:15:55;101293.81;;;17.82;70.48
44359;BME280;30077;52.474;13.326;2022-07-05T04:20:56;101294.28;;;17.74;70.33
44359;BME280;30077;52.474;13.326;2022-07-05T04:25:56;101297.66;;;17.77;70.23
44359;BME280;30077;52.474;13.326;2022-07-05T04:30:57;101309.22;;;17.94;69.00
44359;BME280;30077;52.474;13.326;2022-07-05T04:35:57;101303.25;;;18.16;68.95
44359;BME280;30077;52.474;13.326;2022-07-05T04:40:58;101304.91;;;18.04;68.07
44359;BME280;30077;52.474;13.326;2022-07-05T04:45:58;101315.91;;;18.01;67.59
44359;BME280;30077;52.474;13.326;2022-07-05T04:50:58;101322.63;;;18.08;66.75
44359;BME280;30077;52.474;13.326;2022-07-05T04:55:58;101332.91;;;18.30;66.21
44359;BME280;30077;52.474;13.326;2022-07-05T05:00:59;101332.25;;;18.26;65.55
44359;BME280;30077;52.474;13.326;2022-07-05T05:05:59;101336.75;;;18.53;64.94
44359;BME280;30077;52.474;13.326;2022-07-05T05:11:00;101337.38;;;18.71;63.43
44359;BME280;30077;52.474;13.326;2022-07-05T05:16:01;101341.19;;;18.54;62.47
44359;BME280;30077;52.474;13.326;2022-07-05T05:21:01;101353.72;;;18.55;62.93
44359;BME280;30077;52.474;13.326;2022-07-05T05:26:02;101349.25;;;18.14;61.86
44359;BME280;30077;52.474;13.326;2022-07-05T05:31:02;101355.00;;;18.22;60.13
44359;BME280;30077;52.474;13.326;2022-07-05T05:36:03;101360.78;;;18.31;59.57
44359;BME280;30077;52.474;13.326;2022-07-05T05:41:03;101365.69;;;18.51;59.22
44359;BME280;30077;52.474;13.326;2022-07-05T05:46:04;101365.81;;;18.76;58.84
44359;BME280;30077;52.474;13.326;2022-07-05T05:51:04;101356.56;;;18.93;59.11
44359;BME280;30077;52.474;13.326;2022-07-05T05:56:05;101361.34;;;19.28;58.56
44359;BME280;30077;52.474;13.326;2022-07-05T06:01:05;101371.81;;;19.58;56.23
44359;BME280;30077;52.474;13.326;2022-07-05T06:06:05;101377.22;;;19.58;55.03
44359;BME280;30077;52.474;13.326;2022-07-05T06:11:06;101393.03;;;19.39;55.34
44359;BME280;30077;52.474;13.326;2022-07-05T06:16:06;101388.50;;;19.27;55.92
44359;BME280;30077;52.474;13.326;2022-07-05T06:21:07;101396.81;;;19.23;56.86
44359;BME280;30077;52.474;13.326;2022-07-05T06:26:07;101402.56;;;19.44;55.91
44359;BME280;30077;52.474;13.326;2022-07-05T06:31:07;101394.59;;;19.68;55.95
44359;BME280;30077;52.474;13.326;2022-07-05T06:36:08;101400.00;;;19.68;55.97
44359;BME280;30077;52.474;13.326;2022-07-05T06:41:08;101409.50;;;19.87;56.59
44359;BME280;30077;52.474;13.326;2022-07-05T06:46:08;101407.88;;;19.71;56.85
44359;BME280;30077;52.474;13.326;2022-07-05T06:51:08;101405.38;;;19.94;56.34
44359;BME280;30077;52.474;13.326;2022-07-05T06:56:09;101410.75;;;20.07;56.71
44359;BME280;30077;52.474;13.326;2022-07-05T07:01:09;101417.72;;;19.98;56.88
44359;BME280;30077;52.474;13.326;2022-07-05T07:06:09;101420.06;;;20.03;56.84
44359;BME280;30077;52.474;13.326;2022-07-05T07:11:09;101408.75;;;20.22;56.67
44359;BME280;30077;52.474;13.326;2022-07-05T07:16:11;101416.25;;;20.55;55.34
44359;BME280;30077;52.474;13.326;2022-07-05T07:21:11;101411.72;;;20.55;54.40
44359;BME280;30077;52.474;13.326;2022-07-05T07:26:11;101414.94;;;20.48;54.13
44359;BME280;30077;52.474;13.326;2022-07-05T07:31:13;101408.88;;;20.44;54.03
44359;BME280;30077;52.474;13.326;2022-07-05T07:36:13;101411.78;;;20.66;53.99
44359;BME280;30077;52.474;13.326;2022-07-05T07:41:14;101403.22;;;20.95;53.09
44359;BME280;30077;52.474;13.326;2022-07-05T07:46:14;101398.13;;;21.14;51.43
44359;BME280;30077;52.474;13.326;2022-07-05T07:51:14;101403.03;;;21.09;51.88
44359;BME280;30077;52.474;13.326;2022-07-05T07:56:16;101398.00;;;21.16;52.11
44359;BME280;30077;52.474;13.326;2022-07-05T08:01:17;101399.19;;;21.01;52.05
44359;BME280;30077;52.474;13.326;2022-07-05T08:06:17;101406.66;;;20.86;52.28
44359;BME280;30077;52.474;13.326;2022-07-05T08:11:17;101398.72;;;21.07;53.33
44359;BME280;30077;52.474;13.326;2022-07-05T08:16:17;101402.09;;;21.33;52.04
44359;BME280;30077;52.474;13.326;2022-07-05T08:21:18;101389.06;;;21.60;52.56
44359;BME280;30077;52.474;13.326;2022-07-05T08:26:31;101398.50;;;21.79;50.42
44359;BME280;30077;52.474;13.326;2022-07-05T08:31:34;101399.09;;;21.82;49.09
44359;BME280;30077;52.474;13.326;2022-07-05T08:36:35;101385.72;;;21.34;50.70
44359;BME280;30077;52.474;13.326;2022-07-05T08:41:37;101395.25;;;21.51;50.70
44359;BME280;30077;52.474;13.326;2022-07-05T08:46:39;101395.19;;;21.29;50.17
44359;BME280;30077;52.474;13.326;2022-07-05T08:51:41;101395.34;;;21.38;50.89
44359;BME280;30077;52.474;13.326;2022-07-05T08:56:43;101390.53;;;21.42;51.49
44359;BME280;30077;52.474;13.326;2022-07-05T09:01:45;101391.28;;;21.89;50.43
44359;BME280;30077;52.474;13.326;2022-07-05T09:06:46;101388.31;;;22.15;48.64
44359;BME280;30077;52.474;13.326;2022-07-05T09:11:48;101384.84;;;22.13;49.32
44359;BME280;30077;52.474;13.326;2022-07-05T09:16:48;101382.53;;;22.08;49.27
44359;BME280;30077;52.474;13.326;2022-07-05T09:22:00;101384.50;;;22.17;48.69
44359;BME280;30077;52.474;13.326;2022-07-05T09:27:03;101391.28;;;21.89;50.08
44359;BME280;30077;52.474;13.326;2022-07-05T09:32:04;101374.53;;;21.84;50.94
44359;BME280;30077;52.474;13.326;2022-07-05T09:37:04;101378.91;;;22.07;50.42
44359;BME280;30077;52.474;13.326;2022-07-05T09:42:12;101364.69;;;22.38;50.40
44359;BME280;30077;52.474;13.326;2022-07-05T09:47:16;101379.75;;;22.74;49.04
44359;BME280;30077;52.474;13.326;2022-07-05T09:52:36;101374.31;;;22.74;47.87
44359;BME280;30077;52.474;13.326;2022-07-05T09:57:38;101385.97;;;22.65;48.29
44359;BME280;30077;52.474;13.326;2022-07-05T10:02:47;101369.34;;;22.79;47.21
44359;BME280;30077;52.474;13.326;2022-07-05T10:07:51;101375.63;;;23.12;47.77
44359;BME280;30077;52.474;13.326;2022-07-05T10:13:04;101383.53;;;22.82;48.18
44359;BME280;30077;52.474;13.326;2022-07-05T10:18:08;101378.50;;;22.46;48.11
44359;BME280;30077;52.474;13.326;2022-07-05T10:23:17;101378.44;;;22.89;47.42
44359;BME280;30077;52.474;13.326;2022-07-05T10:28:19;101376.88;;;23.59;46.40
44359;BME280;30077;52.474;13.326;2022-07-05T10:33:23;101373.66;;;24.06;45.16
44359;BME280;30077;52.474;13.326;2022-07-05T10:38:28;101381.22;;;23.62;45.71
44359;BME280;30077;52.474;13.326;2022-07-05T10:43:29;101380.28;;;23.51;46.02
44359;BME280;30077;52.474;13.326;2022-07-05T10:48:35;101382.06;;;23.83;44.05
44359;BME280;30077;52.474;13.326;2022-07-05T10:59:07;101390.41;;;24.41;43.35
44359;BME280;30077;52.474;13.326;2022-07-05T11:04:17;101356.25;;;24.95;41.96
44359;BME280;30077;52.474;13.326;2022-07-05T11:09:21;101359.38;;;25.01;41.28
44359;BME280;30077;52.474;13.326;2022-07-05T11:14:32;101363.69;;;24.93;41.72
44359;BME280;30077;52.474;13.326;2022-07-05T11:19:34;101370.31;;;25.10;41.46
44359;BME280;30077;52.474;13.326;2022-07-05T11:24:37;101368.75;;;23.99;44.07
44359;BME280;30077;52.474;13.326;2022-07-05T11:29:50;101370.28;;;23.31;44.88
44359;BME280;30077;52.474;13.326;2022-07-05T11:34:55;101364.38;;;22.84;46.71
44359;BME280;30077;52.474;13.326;2022-07-05T11:45:22;101355.97;;;23.08;45.90
44359;BME280;30077;52.474;13.326;2022-07-05T11:50:48;101362.06;;;23.73;44.22
44359;BME280;30077;52.474;13.326;2022-07-05T11:55:59;101363.06;;;24.22;41.37
44359;BME280;30077;52.474;13.326;2022-07-05T12:01:03;101339.88;;;24.95;41.62
44359;BME280;30077;52.474;13.326;2022-07-05T12:06:15;101347.56;;;25.29;39.90
44359;BME280;30077;52.474;13.326;2022-07-05T12:11:32;101325.25;;;24.77;40.20
44359;BME280;30077;52.474;13.326;2022-07-05T12:17:33;101335.31;;;24.47;41.37
44359;BME280;30077;52.474;13.326;2022-07-05T12:22:42;101324.94;;;23.72;42.76
44359;BME280;30077;52.474;13.326;2022-07-05T12:27:47;101327.56;;;23.83;42.09
44359;BME280;30077;52.474;13.326;2022-07-05T12:38:11;101311.16;;;24.43;40.50
44359;BME280;30077;52.474;13.326;2022-07-05T12:43:16;101309.00;;;24.85;40.22
44359;BME280;30077;52.474;13.326;2022-07-05T12:48:32;101303.63;;;25.87;37.51
44359;BME280;30077;52.474;13.326;2022-07-05T12:53:36;101294.41;;;25.61;38.60
44359;BME280;30077;52.474;13.326;2022-07-05T12:59:15;101305.53;;;24.83;39.33
44359;BME280;30077;52.474;13.326;2022-07-05T13:04:19;101298.69;;;24.40;40.68
44359;BME280;30077;52.474;13.326;2022-07-05T13:09:40;101295.22;;;24.38;40.75
44359;BME280;30077;52.474;13.326;2022-07-05T13:15:01;101304.97;;;24.31;39.51
44359;BME280;30077;52.474;13.326;2022-07-05T13:20:10;101297.94;;;24.58;40.02
44359;BME280;30077;52.474;13.326;2022-07-05T13:25:13;101286.69;;;25.00;38.66
44359;BME280;30077;52.474;13.326;2022-07-05T13:30:13;101273.56;;;26.05;37.26
44359;BME280;30077;52.474;13.326;2022-07-05T13:35:14;101284.91;;;26.64;36.02
44359;BME280;30077;52.474;13.326;2022-07-05T13:40:14;101269.75;;;26.16;36.76
44359;BME280;30077;52.474;13.326;2022-07-05T13:45:14;101278.56;;;25.27;38.26
44359;BME280;30077;52.474;13.326;2022-07-05T13:50:15;101293.31;;;24.87;39.00
44359;BME280;30077;52.474;13.326;2022-07-05T13:55:34;101282.19;;;24.52;39.73
44359;BME280;30077;52.474;13.326;2022-07-05T14:00:35;101277.88;;;24.39;40.00
44359;BME280;30077;52.474;13.326;2022-07-05T14:05:35;101279.25;;;24.82;39.99
44359;BME280;30077;52.474;13.326;2022-07-05T14:10:35;101270.31;;;25.00;38.48
44359;BME280;30077;52.474;13.326;2022-07-05T14:15:35;101265.03;;;25.63;38.53
44359;BME280;30077;52.474;13.326;2022-07-05T14:20:36;101269.56;;;25.82;36.48
44359;BME280;30077;52.474;13.326;2022-07-05T14:25:36;101270.44;;;25.08;38.34
44359;BME280;30077;52.474;13.326;2022-07-05T14:30:38;101257.94;;;25.15;38.13
44359;BME280;30077;52.474;13.326;2022-07-05T14:35:39;101259.22;;;25.20;38.59
44359;BME280;30077;52.474;13.326;2022-07-05T14:40:40;101263.69;;;25.49;37.67
44359;BME280;30077;52.474;13.326;2022-07-05T14:45:40;101247.78;;;25.90;36.12
44359;BME280;30077;52.474;13.326;2022-07-05T14:50:41;101254.41;;;25.87;36.51
44359;BME280;30077;52.474;13.326;2022-07-05T14:55:41;101258.25;;;25.39;37.47
44359;BME280;30077;52.474;13.326;2022-07-05T15:00:43;101253.50;;;25.41;37.72
44359;BME280;30077;52.474;13.326;2022-07-05T15:05:43;101258.78;;;25.15;37.98
44359;BME280;30077;52.474;13.326;2022-07-05T15:10:43;101259.41;;;24.90;38.21
44359;BME280;30077;52.474;13.326;2022-07-05T15:15:43;101244.03;;;24.98;37.67
44359;BME280;30077;52.474;13.326;2022-07-05T15:20:44;101254.81;;;25.65;37.31
44359;BME280;30077;52.474;13.326;2022-07-05T15:25:44;101249.53;;;25.26;36.90
44359;BME280;30077;52.474;13.326;2022-07-05T15:30:44;101230.75;;;25.51;36.42
44359;BME280;30077;52.474;13.326;2022-07-05T15:35:45;101240.38;;;25.82;36.63
44359;BME280;30077;52.474;13.326;2022-07-05T15:40:45;101250.97;;;25.85;36.67
44359;BME280;30077;52.474;13.326;2022-07-05T15:45:45;101242.81;;;25.48;36.43
44359;BME280;30077;52.474;13.326;2022-07-05T15:50:46;101241.31;;;26.09;36.38
44359;BME280;30077;52.474;13.326;2022-07-05T15:55:46;101244.34;;;26.85;34.42
44359;BME280;30077;52.474;13.326;2022-07-05T16:00:47;101244.50;;;27.10;33.51
44359;BME280;30077;52.474;13.326;2022-07-05T16:05:47;101242.34;;;25.35;35.58
44359;BME280;30077;52.474;13.326;2022-07-05T16:10:47;101245.53;;;24.35;37.57
44359;BME280;30077;52.474;13.326;2022-07-05T16:15:48;101254.72;;;24.14;38.09
44359;BME280;30077;52.474;13.326;2022-07-05T16:21:07;101256.03;;;24.39;37.43
44359;BME280;30077;52.474;13.326;2022-07-05T16:26:10;101265.50;;;24.74;36.74
44359;BME280;30077;52.474;13.326;2022-07-05T16:31:12;101258.81;;;25.06;35.89
44359;BME280;30077;52.474;13.326;2022-07-05T16:36:16;101256.97;;;24.87;36.36
44359;BME280;30077;52.474;13.326;2022-07-05T16:41:17;101266.97;;;24.59;36.44
44359;BME280;30077;52.474;13.326;2022-07-05T16:46:18;101261.97;;;25.01;35.60
44359;BME280;30077;52.474;13.326;2022-07-05T16:51:19;101268.06;;;25.60;34.53
44359;BME280;30077;52.474;13.326;2022-07-05T16:56:20;101257.69;;;24.98;35.71
44359;BME280;30077;52.474;13.326;2022-07-05T17:01:22;101263.00;;;25.92;33.05
44359;BME280;30077;52.474;13.326;2022-07-05T17:06:23;101253.63;;;26.67;32.35
44359;BME280;30077;52.474;13.326;2022-07-05T17:11:23;101257.63;;;25.73;33.23
44359;BME280;30077;52.474;13.326;2022-07-05T17:16:25;101248.56;;;24.32;34.90
44359;BME280;30077;52.474;13.326;2022-07-05T17:21:26;101251.72;;;24.08;35.33
44359;BME280;30077;52.474;13.326;2022-07-05T17:26:26;101262.00;;;23.75;36.28
44359;BME280;30077;52.474;13.326;2022-07-05T17:31:29;101265.91;;;23.51;36.49
44359;BME280;30077;52.474;13.326;2022-07-05T17:36:30;101257.69;;;23.32;37.43
44359;BME280;30077;52.474;13.326;2022-07-05T17:41:30;101260.41;;;23.42;37.62
44359;BME280;30077;52.474;13.326;2022-07-05T17:46:30;101255.88;;;23.52;37.36
44359;BME280;30077;52.474;13.326;2022-07-05T17:51:30;101266.56;;;23.03;36.54
44359;BME280;30077;52.474;13.326;2022-07-05T17:56:31;101263.94;;;22.92;37.26
44359;BME280;30077;52.474;13.326;2022-07-05T18:01:31;101253.38;;;22.78;37.55
44359;BME280;30077;52.474;13.326;2022-07-05T18:06:31;101267.97;;;22.56;37.41
44359;BME280;30077;52.474;13.326;2022-07-05T18:11:32;101265.91;;;22.48;37.31
44359;BME280;30077;52.474;13.326;2022-07-05T18:16:32;101268.09;;;22.33;37.27
44359;BME280;30077;52.474;13.326;2022-07-05T18:21:32;101278.59;;;22.27;37.77
44359;BME280;30077;52.474;13.326;2022-07-05T18:26:34;101273.94;;;22.18;37.90
44359;BME280;30077;52.474;13.326;2022-07-05T18:31:34;101274.69;;;22.08;38.17
44359;BME280;30077;52.474;13.326;2022-07-05T18:36:35;101277.66;;;22.05;38.16
44359;BME280;30077;52.474;13.326;2022-07-05T18:41:35;101279.16;;;21.98;37.71
44359;BME280;30077;52.474;13.326;2022-07-05T18:46:35;101279.41;;;21.95;38.16
44359;BME280;30077;52.474;13.326;2022-07-05T18:51:36;101282.63;;;21.89;38.39
44359;BME280;30077;52.474;13.326;2022-07-05T18:56:36;101286.13;;;21.80;38.22
44359;BME280;30077;52.474;13.326;2022-07-05T19:01:37;101277.22;;;21.78;38.25
44359;BME280;30077;52.474;13.326;2022-07-05T19:06:41;101276.78;;;21.61;38.92
44359;BME280;30077;52.474;13.326;2022-07-05T19:12:00;101280.00;;;21.44;39.22
44359;BME280;30077;52.474;13.326;2022-07-05T19:17:19;101293.78;;;21.30;39.54
44359;BME280;30077;52.474;13.326;2022-07-05T19:22:19;101297.72;;;21.14;39.49
44359;BME280;30077;52.474;13.326;2022-07-05T19:27:23;101295.00;;;21.03;39.76
44359;BME280;30077;52.474;13.326;2022-07-05T19:32:23;101319.50;;;20.90;39.87
44359;BME280;30077;52.474;13.326;2022-07-05T19:37:24;101310.47;;;20.79;39.86
44359;BME280;30077;52.474;13.326;2022-07-05T19:42:25;101306.75;;;20.68;40.05
44359;BME280;30077;52.474;13.326;2022-07-05T19:47:26;101300.44;;;20.57;40.25
44359;BME280;30077;52.474;13.326;2022-07-05T19:52:26;101304.06;;;20.44;40.78
44359;BME280;30077;52.474;13.326;2022-07-05T19:57:26;101311.03;;;20.36;40.79
44359;BME280;30077;52.474;13.326;2022-07-05T20:02:27;101315.56;;;20.24;41.46
44359;BME280;30077;52.474;13.326;2022-07-05T20:07:27;101306.72;;;20.09;42.64
44359;BME280;30077;52.474;13.326;2022-07-05T20:12:28;101307.88;;;19.94;43.23
44359;BME280;30077;52.474;13.326;2022-07-05T20:17:28;101318.16;;;19.89;42.71
44359;BME280;30077;52.474;13.326;2022-07-05T20:22:29;101320.06;;;19.76;44.26
44359;BME280;30077;52.474;13.326;2022-07-05T20:27:29;101319.22;;;19.62;44.67
44359;BME280;30077;52.474;13.326;2022-07-05T20:32:30;101334.34;;;19.52;45.03
44359;BME280;30077;52.474;13.326;2022-07-05T20:37:31;101326.66;;;19.46;44.98
44359;BME280;30077;52.474;13.326;2022-07-05T20:42:31;101325.28;;;19.40;45.47
44359;BME280;30077;52.474;13.326;2022-07-05T20:47:32;101337.97;;;19.40;45.75
44359;BME280;30077;52.474;13.326;2022-07-05T20:52:32;101323.56;;;19.39;45.32
44359;BME280;30077;52.474;13.326;2022-07-05T20:57:33;101332.44;;;19.41;45.03
44359;BME280;30077;52.474;13.326;2022-07-05T21:02:33;101333.50;;;19.39;45.20
44359;BME280;30077;52.474;13.326;2022-07-05T21:07:34;101331.91;;;19.36;45.64
44359;BME280;30077;52.474;13.326;2022-07-05T21:12:35;101340.88;;;19.37;45.53
44359;BME280;30077;52.474;13.326;2022-07-05T21:17:39;101338.03;;;19.38;45.75
44359;BME280;30077;52.474;13.326;2022-07-05T21:22:40;101338.16;;;19.37;46.26
44359;BME280;30077;52.474;13.326;2022-07-05T21:27:40;101337.41;;;19.35;46.18
44359;BME280;30077;52.474;13.326;2022-07-05T21:32:41;101337.41;;;19.35;46.35
44359;BME280;30077;52.474;13.326;2022-07-05T21:37:41;101333.50;;;19.39;45.99
44359;BME280;30077;52.474;13.326;2022-07-05T21:42:42;101338.91;;;19.39;46.41
44359;BME280;30077;52.474;13.326;2022-07-05T21:47:43;101342.59;;;19.38;45.60
44359;BME280;30077;52.474;13.326;2022-07-05T21:52:43;101349.97;;;19.36;46.20
44359;BME280;30077;52.474;13.326;2022-07-05T21:57:43;101345.19;;;19.27;46.36
44359;BME280;30077;52.474;13.326;2022-07-05T22:02:44;101351.03;;;19.20;46.40
44359;BME280;30077;52.474;13.326;2022-07-05T22:08:03;101359.81;;;19.11;46.22
44359;BME280;30077;52.474;13.326;2022-07-05T22:13:03;101354.81;;;19.05;45.84
44359;BME280;30077;52.474;13.326;2022-07-05T22:18:03;101351.59;;;19.00;46.21
44359;BME280;30077;52.474;13.326;2022-07-05T22:23:04;101367.78;;;18.87;47.63
44359;BME280;30077;52.474;13.326;2022-07-05T22:28:04;101361.38;;;18.75;48.58
44359;BME280;30077;52.474;13.326;2022-07-05T22:33:04;101365.09;;;18.60;49.47
44359;BME280;30077;52.474;13.326;2022-07-05T22:38:04;101378.22;;;18.39;50.95
44359;BME280;30077;52.474;13.326;2022-07-05T22:43:06;101388.19;;;18.24;52.76
44359;BME280;30077;52.474;13.326;2022-07-05T22:48:06;101380.13;;;18.10;53.79
44359;BME280;30077;52.474;13.326;2022-07-05T22:53:06;101386.78;;;18.04;54.25
44359;BME280;30077;52.474;13.326;2022-07-05T22:58:07;101384.69;;;17.95;54.64
44359;BME280;30077;52.474;13.326;2022-07-05T23:03:10;101379.31;;;17.81;55.08
44359;BME280;30077;52.474;13.326;2022-07-05T23:08:10;101385.94;;;17.75;55.58
44359;BME280;30077;52.474;13.326;2022-07-05T23:13:11;101375.91;;;17.63;56.17
44359;BME280;30077;52.474;13.326;2022-07-05T23:18:11;101374.38;;;17.59;56.63
44359;BME280;30077;52.474;13.326;2022-07-05T23:23:11;101381.00;;;17.53;56.94
44359;BME280;30077;52.474;13.326;2022-07-05T23:28:11;101385.16;;;17.45;57.46
44359;BME280;30077;52.474;13.326;2022-07-05T23:33:13;101383.44;;;17.44;57.83
44359;BME280;30077;52.474;13.326;2022-07-05T23:38:13;101388.72;;;17.45;58.03
44359;BME280;30077;52.474;13.326;2022-07-05T23:43:13;101395.38;;;17.40;58.45
44359;BME280;30077;52.474;13.326;2022-07-05T23:48:14;101400.78;;;17.40;58.56
44359;BME280;30077;52.474;13.326;2022-07-05T23:53:14;101399.63;;;17.29;59.20
44359;BME280;30077;52.474;13.326;2022-07-05T23:58:14;101392.69;;;17.25;59.45
